Accueil
METAR-TAF:

METAR-TAF

Aéroports :

Aéroport de Rotterdam-La Haye

Rotterdam, Pays-Bas

latitude: 51-57N, longitude: 004-27E, altitude: -5 m

Observation

Le bulletin a été fait il y a 19 minutes, à 10:55 UTC
Vent 7 kt de sud
Température 4°C
Humidité 81%
Pression 1020 hPa
Visibilité 10 km ou plus

METAR: EHRD 181055Z AUTO 17007KT 9999 NSC 04/01 Q1020 NOSIG

Heure: 12:14 (11:14 UTC)

Prévision

Le bulletin a été fait il y a 6 heures et 31 minutes, à 04:43 UTC
Prévision valable du 18 à 06 UTC au 19 à 12 UTC
Vent 3 kt de direction variable
Visibilité 10 km ou plus
pas de nuages en-dessous de 1500 mètres et pas de cumulonimbus.
Evoluant progressivement
du 18 à 08 UTC au 18 à 11 UTC
Vent 7 kt de sud
Evoluant progressivement
du 19 à 05 UTC au 19 à 08 UTC
Vent 10 kt de sud-est

TAF: EHRD 180443Z 1806/1912 VRB03KT CAVOK BECMG 1808/1811 18007KT BECMG 1905/1908 13010KT

Observations et prévisions météorologiques de plus de 4000 aéroports (messages METAR et TAF).

Les stations disponibles sont représentées par des disques jaunes et rouges sur la carte.

Passer la souris dessus pour voir le nom de la station.

Cliquer dessus pour voir les observations et prévisions météorologiques.

Pour changer de carte: cliquez sur les boutons verts avec une croix noire pour zoomer, sur le bouton vert avec un tiret pour effectuer un zoom arrière, ou sur les flèches vertes pour les cartes adjacentes.


METAR-TAF: